Time;durP1;ratioP1;P1;durP2;ratioP2;P2;SDS_P1;SDS_P2;PMS_P1;PMS_P2;Temp;Humidity;BMP_temperature;BMP_pressure;BME280_temperature;BME280_humidity;BME280_pressure;Samples;Min_cycle;Max_cycle;Signal;HPM_P1;HPM_P2
2023/01/21 00:00:43;;;;;;;30.70;19.90;;;;;;;2.64;100.00;99638.52;103557;1273;72138;-61
2023/01/21 00:03:11;;;;;;;33.50;20.30;;;;;;;2.73;100.00;99630.98;103471;1277;73936;-61
2023/01/21 00:05:39;;;;;;;35.80;21.30;;;;;;;2.81;100.00;99628.48;103756;1266;158504;-61
2023/01/21 00:08:06;;;;;;;37.10;20.60;;;;;;;2.89;100.00;99629.08;103770;1264;59882;-61
2023/01/21 00:10:33;;;;;;;31.90;19.60;;;;;;;2.98;100.00;99634.34;103840;1264;74816;-61
2023/01/21 00:13:00;;;;;;;32.50;19.60;;;;;;;3.06;100.00;99633.89;103748;1270;69654;-61
2023/01/21 00:15:27;;;;;;;29.90;18.40;;;;;;;3.12;100.00;99628.44;103511;1267;72376;-61
2023/01/21 00:17:55;;;;;;;29.00;19.20;;;;;;;3.16;100.00;99626.50;103837;1264;62121;-60
2023/01/21 00:20:22;;;;;;;34.30;20.60;;;;;;;3.18;100.00;99624.39;103816;1271;60863;-61
2023/01/21 00:22:52;;;;;;;35.20;21.10;;;;;;;3.20;100.00;99625.23;103996;1263;73791;-61
2023/01/21 00:25:20;;;;;;;31.90;20.10;;;;;;;3.22;100.00;99628.83;103807;1268;70094;-60
2023/01/21 00:27:47;;;;;;;32.80;20.30;;;;;;;3.24;100.00;99630.73;103649;1272;73877;-61
2023/01/21 00:30:14;;;;;;;33.40;20.20;;;;;;;3.25;100.00;99628.80;103870;1282;60872;-61
2023/01/21 00:32:43;;;;;;;36.90;20.50;;;;;;;3.25;100.00;99624.64;104036;1270;59824;-63
2023/01/21 00:35:11;;;;;;;37.50;21.90;;;;;;;3.26;100.00;99631.22;103814;1267;73861;-62
2023/01/21 00:37:38;;;;;;;35.90;20.60;;;;;;;3.26;100.00;99629.65;103778;1266;69694;-62
2023/01/21 00:40:06;;;;;;;37.00;20.40;;;;;;;3.28;100.00;99631.36;103786;1266;72984;-62
2023/01/21 00:42:33;;;;;;;30.30;19.00;;;;;;;3.27;100.00;99632.59;103754;1269;61778;-62
2023/01/21 00:45:00;;;;;;;35.60;20.70;;;;;;;3.26;100.00;99631.21;103887;1266;61156;-61
2023/01/21 00:47:27;;;;;;;36.30;21.60;;;;;;;3.29;100.00;99623.55;103777;1277;74641;-61
2023/01/21 00:49:54;;;;;;;38.40;22.60;;;;;;;3.33;100.00;99621.41;103879;1269;70010;-62
2023/01/21 00:52:21;;;;;;;30.20;19.70;;;;;;;3.32;100.00;99624.55;104410;1260;73378;-61
2023/01/21 00:54:48;;;;;;;31.70;20.30;;;;;;;3.28;100.00;99624.95;104382;1270;60669;-62
2023/01/21 00:57:16;;;;;;;29.70;19.40;;;;;;;3.29;100.00;99616.96;104388;1255;60411;-61
2023/01/21 00:59:43;;;;;;;33.50;21.30;;;;;;;3.36;100.00;99624.84;104336;1255;73070;-61
2023/01/21 01:02:10;;;;;;;33.20;20.10;;;;;;;3.38;100.00;99625.69;104331;1259;70288;-63
2023/01/21 01:04:37;;;;;;;34.20;19.30;;;;;;;3.37;100.00;99626.92;104335;1257;75083;-61
2023/01/21 01:07:05;;;;;;;35.30;20.70;;;;;;;3.32;100.00;99626.44;104387;1257;63744;-61
2023/01/21 01:09:32;;;;;;;35.90;21.20;;;;;;;3.34;100.00;99627.13;104390;1260;60479;-62
2023/01/21 01:11:59;;;;;;;35.30;21.80;;;;;;;3.37;100.00;99624.83;104368;1257;75458;-61
2023/01/21 01:14:26;;;;;;;35.00;22.20;;;;;;;3.38;100.00;99623.61;104345;1272;71259;-62
2023/01/21 01:16:53;;;;;;;35.90;21.30;;;;;;;3.36;100.00;99619.13;104360;1254;72648;-61
2023/01/21 01:19:20;;;;;;;33.80;20.20;;;;;;;3.30;100.00;99616.61;104279;1258;60827;-61
2023/01/21 01:21:47;;;;;;;37.20;21.30;;;;;;;3.32;100.00;99615.54;104315;1257;60403;-61
2023/01/21 01:24:15;;;;;;;38.10;21.60;;;;;;;3.37;100.00;99613.73;104425;1256;72773;-61
2023/01/21 01:26:42;;;;;;;31.40;20.10;;;;;;;3.39;100.00;99606.09;104278;1260;69952;-61
2023/01/21 01:29:10;;;;;;;31.80;20.20;;;;;;;3.34;100.00;99604.42;104386;1257;71965;-61
2023/01/21 01:31:37;;;;;;;35.00;21.20;;;;;;;3.32;100.00;99604.98;104353;1254;60997;-61
2023/01/21 01:34:05;;;;;;;37.20;21.00;;;;;;;3.35;100.00;99602.52;104388;1254;60224;-61
2023/01/21 01:36:32;;;;;;;35.80;21.50;;;;;;;3.38;100.00;99602.30;104389;1257;72658;-61
2023/01/21 01:38:59;;;;;;;35.30;21.40;;;;;;;3.38;100.00;99606.10;104413;1259;69924;-61
2023/01/21 01:41:28;;;;;;;35.00;21.10;;;;;;;3.32;100.00;99609.13;104333;1254;72515;-61
2023/01/21 01:44:03;;;;;;;32.70;22.00;;;;;;;3.34;100.00;99602.70;104330;1259;62073;-61
2023/01/21 01:46:34;;;;;;;36.40;22.00;;;;;;;3.40;100.00;99604.52;104366;1257;60641;-61
2023/01/21 01:49:13;;;;;;;33.10;20.70;;;;;;;3.40;100.00;99604.52;104336;1261;73078;-62
2023/01/21 01:51:50;;;;;;;38.70;21.80;;;;;;;3.34;100.00;99598.02;104544;1264;71264;-62
2023/01/21 01:54:22;;;;;;;36.10;20.90;;;;;;;3.33;100.00;99603.73;104334;1261;72335;-62
2023/01/21 01:56:51;;;;;;;37.10;22.70;;;;;;;3.37;100.00;99601.96;104298;1259;60560;-61
2023/01/21 01:59:18;;;;;;;38.50;22.40;;;;;;;3.37;100.00;99601.79;104497;1254;59777;-61
2023/01/21 02:01:45;;;;;;;33.20;20.20;;;;;;;3.35;100.00;99604.41;104404;1254;73364;-61
2023/01/21 02:04:15;;;;;;;34.90;20.90;;;;;;;3.37;100.00;99602.66;104430;1257;72030;-61
2023/01/21 02:06:42;;;;;;;32.90;21.00;;;;;;;3.43;100.00;99598.58;104337;1266;72599;-60
2023/01/21 02:09:09;;;;;;;37.20;21.90;;;;;;;3.42;100.00;99594.09;104290;1259;61778;-60
2023/01/21 02:11:37;;;;;;;32.40;19.90;;;;;;;3.38;100.00;99600.73;104477;1264;60407;-62
2023/01/21 02:14:04;;;;;;;37.90;19.90;;;;;;;3.38;100.00;99607.66;104359;1259;73894;-60
2023/01/21 02:16:46;;;;;;;36.20;21.60;;;;;;;3.41;100.00;99611.60;104413;1263;69628;-63
2023/01/21 02:19:25;;;;;;;34.60;21.30;;;;;;;3.38;100.00;99613.54;104443;1270;73455;-61
2023/01/21 02:22:27;;;;;;;34.10;20.10;;;;;;;3.36;100.00;99610.98;104369;1255;59783;-60
2023/01/21 02:25:28;;;;;;;38.60;21.60;;;;;;;3.36;100.00;99619.64;104437;1256;61167;-61
2023/01/21 02:28:08;;;;;;;33.20;21.20;;;;;;;3.42;100.00;99617.48;104386;1255;73637;-62
2023/01/21 02:31:04;;;;;;;36.30;20.30;;;;;;;3.43;100.00;99623.19;104362;1257;70652;-61
2023/01/21 02:33:40;;;;;;;33.10;21.00;;;;;;;3.41;100.00;99634.30;104257;1266;72657;-62
2023/01/21 02:36:35;;;;;;;36.90;20.60;;;;;;;3.46;100.00;99637.70;104363;1254;60940;-61
2023/01/21 02:39:25;;;;;;;35.10;21.60;;;;;;;3.47;100.00;99644.09;104305;1254;60563;-64
2023/01/21 02:42:01;;;;;;;35.90;21.00;;;;;;;3.46;100.00;99642.38;104335;1257;73485;-61
2023/01/21 02:45:00;;;;;;;36.30;19.90;;;;;;;3.43;100.00;99643.64;104271;1257;70167;-61
2023/01/21 02:47:46;;;;;;;32.90;20.70;;;;;;;3.47;100.00;99643.76;104166;1260;72890;-61
2023/01/21 02:50:17;;;;;;;34.00;20.40;;;;;;;3.55;100.00;99648.83;104357;1253;61015;-60
2023/01/21 02:52:44;;;;;;;34.50;21.00;;;;;;;3.56;100.00;99639.11;104307;1266;60481;-61
2023/01/21 02:55:14;;;;;;;32.20;20.40;;;;;;;3.52;100.00;99646.80;104458;1259;74619;-59
2023/01/21 02:57:47;;;;;;;28.80;18.40;;;;;;;3.50;100.00;99628.63;104457;1270;71928;-60
2023/01/21 03:00:24;;;;;;;33.40;19.50;;;;;;;3.55;100.00;99618.16;104403;1254;72339;-60
2023/01/21 03:03:15;;;;;;;32.00;20.60;;;;;;;3.58;100.00;99624.54;104313;1257;60396;-60
2023/01/21 03:06:15;;;;;;;31.10;18.90;;;;;;;3.54;100.00;99619.73;104492;1259;62667;-60
2023/01/21 03:08:50;;;;;;;33.00;19.80;;;;;;;3.48;100.00;99621.55;104498;1253;72926;-61
2023/01/21 03:11:19;;;;;;;33.30;20.40;;;;;;;3.49;100.00;99618.42;104322;1257;72135;-60
2023/01/21 03:16:56;;;;;;;31.20;18.80;;;;;;;3.52;100.00;99608.83;104387;1267;59746;-60
2023/01/21 03:19:34;;;;;;;30.10;18.10;;;;;;;3.52;100.00;99613.17;104253;1252;61451;-61
2023/01/21 03:22:06;;;;;;;35.40;19.30;;;;;;;3.54;100.00;99610.89;104387;1255;75475;-60
2023/01/21 03:24:33;;;;;;;32.20;19.50;;;;;;;3.61;100.00;99636.98;104266;1270;69522;-60
2023/01/21 03:27:00;;;;;;;31.00;18.80;;;;;;;3.62;100.00;99630.02;104309;1266;72641;-60
2023/01/21 03:29:28;;;;;;;29.10;17.80;;;;;;;3.65;100.00;99627.04;104514;1261;60316;-61
2023/01/21 03:31:57;;;;;;;30.70;17.80;;;;;;;3.62;100.00;99639.03;104423;1257;60234;-62
2023/01/21 03:34:25;;;;;;;30.40;17.20;;;;;;;3.64;100.00;99627.73;104497;1254;73339;-60
2023/01/21 03:36:57;;;;;;;30.40;18.20;;;;;;;3.69;100.00;99635.11;104484;1256;69731;-60
2023/01/21 03:40:00;;;;;;;32.10;19.70;;;;;;;3.70;100.00;99624.35;104338;1258;72846;-61
2023/01/21 03:42:27;;;;;;;32.20;18.20;;;;;;;3.65;100.00;99632.05;104464;1260;61578;-61
2023/01/21 03:44:54;;;;;;;28.60;17.60;;;;;;;3.60;100.00;99617.21;104487;1254;60376;-61
2023/01/21 03:47:32;;;;;;;32.60;17.40;;;;;;;3.60;100.00;99612.88;104426;1256;72871;-66
2023/01/21 03:50:03;;;;;;;28.60;18.10;;;;;;;3.64;100.00;99608.16;104497;1256;72157;-62
2023/01/21 03:52:30;;;;;;;27.00;17.50;;;;;;;3.68;100.00;99605.84;104333;1253;73131;-61
2023/01/21 03:54:57;;;;;;;28.10;17.50;;;;;;;3.68;100.00;99613.11;104520;1256;59957;-62
2023/01/21 03:57:25;;;;;;;28.30;17.50;;;;;;;3.68;100.00;99608.09;104609;1252;62135;-63
2023/01/21 03:59:52;;;;;;;37.40;17.50;;;;;;;3.66;100.00;99601.18;104256;1270;72782;-60
2023/01/21 04:02:19;;;;;;;28.00;16.80;;;;;;;3.70;100.00;99621.23;104537;1254;68653;-61
2023/01/21 04:04:47;;;;;;;;;;;;;;;3.76;100.00;99628.61;104465;1259;72147;-63
2023/01/21 04:07:15;;;;;;;25.10;15.50;;;;;;;3.73;100.00;99633.16;104334;1254;61773;-60
2023/01/21 04:09:42;;;;;;;23.10;14.90;;;;;;;3.73;100.00;99638.88;104679;1258;60856;-61
2023/01/21 04:12:09;;;;;;;28.90;16.40;;;;;;;3.70;100.00;99639.95;104269;1273;72940;-60
2023/01/21 04:14:37;;;;;;;28.10;16.80;;;;;;;3.74;100.00;99640.43;104408;1259;69185;-60
2023/01/21 04:17:04;;;;;;;26.90;16.50;;;;;;;3.79;100.00;99640.50;104380;1269;71998;-60
2023/01/21 04:19:31;;;;;;;29.50;16.40;;;;;;;3.82;100.00;99634.06;104288;1263;60540;-61
2023/01/21 04:21:58;;;;;;;25.70;15.80;;;;;;;3.78;100.00;99632.38;104289;1255;61143;-60
2023/01/21 04:24:25;;;;;;;29.30;16.80;;;;;;;3.76;100.00;99635.20;104372;1254;73826;-61
2023/01/21 04:26:52;;;;;;;28.70;16.60;;;;;;;3.75;100.00;99633.81;104288;1257;71143;-60
2023/01/21 04:29:20;;;;;;;25.10;16.60;;;;;;;3.77;100.00;99634.48;104405;1254;74506;-60
2023/01/21 04:31:47;;;;;;;23.90;15.70;;;;;;;3.77;100.00;99639.85;104346;1258;60533;-62
2023/01/21 04:34:15;;;;;;;21.70;14.20;;;;;;;3.75;100.00;99642.48;104366;1253;60971;-61
2023/01/21 04:36:42;;;;;;;23.60;15.20;;;;;;;3.69;100.00;99651.06;104417;1254;73341;-61
2023/01/21 04:39:10;;;;;;;28.80;16.30;;;;;;;3.70;100.00;99648.45;104457;1270;70017;-62
2023/01/21 04:41:37;;;;;;;23.00;15.00;;;;;;;3.76;100.00;99628.94;104380;1254;73301;-62
2023/01/21 04:44:04;;;;;;;23.70;15.90;;;;;;;3.78;100.00;99629.78;104423;1254;60514;-61
2023/01/21 04:46:31;;;;;;;22.50;15.00;;;;;;;3.77;100.00;99636.39;104606;1253;60435;-62
2023/01/21 04:48:58;;;;;;;28.80;15.70;;;;;;;3.74;100.00;99633.14;104259;1268;73675;-62
2023/01/21 04:51:26;;;;;;;27.10;16.40;;;;;;;3.75;100.00;99632.77;104348;1270;69550;-62
2023/01/21 04:53:53;;;;;;;29.30;16.20;;;;;;;3.79;100.00;99641.20;104326;1270;73014;-61
2023/01/21 04:56:20;;;;;;;29.30;16.50;;;;;;;3.84;100.00;99642.35;104334;1269;60607;-61
2023/01/21 04:58:47;;;;;;;23.20;14.90;;;;;;;3.82;100.00;99650.01;104291;1260;61053;-62
2023/01/21 05:01:14;;;;;;;25.60;14.70;;;;;;;3.78;100.00;99649.71;104338;1254;76126;-61
2023/01/21 05:03:41;;;;;;;22.50;14.10;;;;;;;3.77;100.00;99646.97;104378;1270;70356;-61
2023/01/21 05:06:09;;;;;;;25.10;16.10;;;;;;;3.82;100.00;99646.55;104296;1269;72906;-61
2023/01/21 05:08:36;;;;;;;25.50;14.80;;;;;;;3.85;100.00;99637.83;104333;1254;61087;-61
2023/01/21 05:11:05;;;;;;;26.60;15.80;;;;;;;3.81;100.00;99632.00;104323;1254;60917;-62
2023/01/21 05:13:32;;;;;;;25.70;15.90;;;;;;;3.77;100.00;99636.91;104137;1254;73109;-62
2023/01/21 05:16:04;;;;;;;23.90;15.10;;;;;;;3.78;100.00;99627.02;104331;1258;70546;-62
2023/01/21 05:18:31;;;;;;;22.20;14.60;;;;;;;3.84;100.00;99624.48;104509;1254;72793;-61
2023/01/21 05:20:58;;;;;;;19.80;13.90;;;;;;;3.86;100.00;99642.31;104360;1253;60514;-61
2023/01/21 05:23:26;;;;;;;25.00;14.00;;;;;;;3.85;100.00;99650.30;104339;1268;60541;-62
2023/01/21 05:25:53;;;;;;;29.90;14.00;;;;;;;3.81;100.00;99640.84;104311;1259;74067;-61
2023/01/21 05:28:20;;;;;;;22.80;14.50;;;;;;;3.78;100.00;99639.48;104285;1257;72166;-61
2023/01/21 05:30:47;;;;;;;21.80;15.00;;;;;;;3.79;100.00;99640.34;104400;1258;72962;-61
2023/01/21 05:33:14;;;;;;;27.20;14.40;;;;;;;3.81;100.00;99642.75;104371;1257;60432;-61
2023/01/21 05:35:41;;;;;;;23.20;13.90;;;;;;;3.77;100.00;99652.16;104427;1258;61028;-62
2023/01/21 05:38:08;;;;;;;20.90;12.70;;;;;;;3.73;100.00;99657.61;104267;1270;74071;-61
2023/01/21 05:40:36;;;;;;;23.90;14.00;;;;;;;3.72;100.00;99649.46;104349;1256;70610;-62
2023/01/21 05:43:03;;;;;;;23.70;13.90;;;;;;;3.74;100.00;99649.95;104485;1255;73950;-63
2023/01/21 05:45:30;;;;;;;26.20;14.80;;;;;;;3.72;100.00;99638.38;104392;1254;60548;-62
2023/01/21 05:47:58;;;;;;;25.90;14.20;;;;;;;3.71;100.00;99648.96;104268;1263;60530;-61
2023/01/21 05:50:25;;;;;;;22.30;13.40;;;;;;;3.65;100.00;99652.33;104320;1257;74701;-61
2023/01/21 05:52:52;;;;;;;19.40;13.80;;;;;;;3.65;100.00;99646.79;104324;1273;69991;-61
2023/01/21 05:55:19;;;;;;;26.40;14.90;;;;;;;3.68;100.00;99652.80;104327;1260;73816;-62
2023/01/21 05:57:46;;;;;;;23.00;13.50;;;;;;;3.71;100.00;99647.40;104503;1254;61177;-62
2023/01/21 06:00:14;;;;;;;19.70;13.50;;;;;;;3.72;100.00;99643.05;104379;1260;61491;-62
2023/01/21 06:02:41;;;;;;;20.50;13.40;;;;;;;3.68;100.00;99654.02;104295;1273;73652;-61
2023/01/21 06:05:09;;;;;;;20.70;13.20;;;;;;;3.70;100.00;99649.15;104315;1263;70621;-62
2023/01/21 06:07:36;;;;;;;20.00;13.30;;;;;;;3.74;100.00;99648.04;104369;1254;72494;-61
2023/01/21 06:10:04;;;;;;;25.50;15.00;;;;;;;3.74;100.00;99648.23;104338;1263;61450;-60
2023/01/21 06:12:31;;;;;;;23.80;13.80;;;;;;;3.74;100.00;99649.43;104409;1268;60453;-61
2023/01/21 06:14:59;;;;;;;25.30;13.10;;;;;;;3.73;100.00;99660.04;104382;1257;73876;-61
2023/01/21 06:17:26;;;;;;;23.00;13.50;;;;;;;3.73;100.00;99663.33;104337;1275;71495;-60
2023/01/21 06:19:53;;;;;;;25.60;13.30;;;;;;;3.79;100.00;99657.16;104343;1257;72817;-60
2023/01/21 06:22:20;;;;;;;19.60;12.80;;;;;;;3.83;100.00;99658.84;104452;1256;60500;-60
2023/01/21 06:24:48;;;;;;;19.00;13.10;;;;;;;3.81;100.00;99648.97;104521;1256;60514;-60
2023/01/21 06:27:15;;;;;;;26.90;13.70;;;;;;;3.79;100.00;99649.88;104803;1258;72792;-60
2023/01/21 06:29:42;;;;;;;23.40;13.80;;;;;;;3.80;100.00;99653.34;104617;1259;69976;-60
2023/01/21 06:32:10;;;;;;;20.80;13.20;;;;;;;3.82;100.00;99651.21;104722;1254;75350;-60
2023/01/21 06:34:37;;;;;;;20.90;13.10;;;;;;;3.85;100.00;99646.14;104452;1256;60512;-60
2023/01/21 07:44:01;;;;;;;21.90;13.40;;;;;;;0.92;100.00;99793.18;102371;1301;600755;-59
2023/01/21 07:46:31;;;;;;;25.10;15.10;;;;;;;1.55;100.00;99817.23;103663;1282;61489;-63
2023/01/21 07:48:59;;;;;;;31.60;17.30;;;;;;;1.84;100.00;99820.38;103278;1265;61420;-62
2023/01/21 07:51:26;;;;;;;26.20;16.60;;;;;;;2.03;100.00;99812.88;103593;1283;71611;-63
2023/01/21 07:53:55;;;;;;;28.40;15.90;;;;;;;2.19;100.00;99805.70;103437;1273;71324;-63
2023/01/21 07:56:25;;;;;;;31.20;16.20;;;;;;;2.32;100.00;99797.81;104272;1254;72995;-60
2023/01/21 07:58:53;;;;;;;25.40;15.10;;;;;;;2.45;100.00;99794.27;104302;1260;62543;-62
2023/01/21 08:01:21;;;;;;;28.20;15.40;;;;;;;2.55;100.00;99786.06;104334;1253;60451;-61
2023/01/21 08:03:51;;;;;;;26.60;15.40;;;;;;;2.64;100.00;99787.03;104447;1258;72335;-61
2023/01/21 08:06:18;;;;;;;23.10;14.40;;;;;;;2.68;100.00;99790.62;104443;1257;69814;-62
2023/01/21 08:08:46;;;;;;;;;;;;;;;2.73;100.00;99787.30;104315;1260;73437;-60
2023/01/21 08:11:13;;;;;;;;;;;;;;;2.76;100.00;99783.64;104326;1257;63045;-62
2023/01/21 08:13:40;;;;;;;23.00;13.30;;;;;;;2.78;100.00;99780.50;104689;1255;59671;-61
2023/01/21 08:16:10;;;;;;;23.10;13.50;;;;;;;2.78;100.00;99783.79;104532;1274;73198;-61
2023/01/21 08:18:40;;;;;;;22.50;14.20;;;;;;;2.84;100.00;99790.30;104264;1257;70063;-63
2023/01/21 08:21:07;;;;;;;22.50;13.40;;;;;;;2.89;100.00;99798.59;104113;1253;74798;-62
2023/01/21 08:23:38;;;;;;;;;;;;;;;2.91;100.00;99807.05;104699;1254;63233;-60
2023/01/21 08:26:06;;;;;;;20.90;14.10;;;;;;;2.91;100.00;99814.84;104397;1273;62166;-60
2023/01/21 08:28:33;;;;;;;23.70;13.70;;;;;;;2.99;100.00;99813.04;104529;1269;72607;-63
2023/01/21 08:31:09;;;;;;;26.10;14.30;;;;;;;3.01;100.00;99816.14;104575;1264;68998;-62
2023/01/21 08:33:37;;;;;;;24.20;14.20;;;;;;;3.04;100.00;99816.45;104210;1256;72946;-62
2023/01/21 08:36:06;;;;;;;24.80;15.10;;;;;;;3.11;100.00;99809.62;104438;1254;62098;-62
2023/01/21 08:38:36;;;;;;;25.20;14.90;;;;;;;3.17;100.00;99823.78;104184;1253;61006;-63
2023/01/21 08:41:04;;;;;;;26.00;15.30;;;;;;;3.16;100.00;99837.66;104644;1254;73241;-65
2023/01/21 08:43:39;;;;;;;25.80;13.40;;;;;;;3.13;100.00;99836.46;103982;1270;69102;-62
2023/01/21 08:46:07;;;;;;;24.70;14.70;;;;;;;3.16;100.00;99844.23;104155;1261;72509;-62
2023/01/21 08:48:36;;;;;;;26.00;15.40;;;;;;;3.22;100.00;99829.45;104202;1275;59840;-61
2023/01/21 08:51:04;;;;;;;24.50;15.70;;;;;;;3.25;100.00;99838.61;104343;1257;62263;-61
2023/01/21 08:53:33;;;;;;;23.30;14.90;;;;;;;3.28;100.00;99853.30;104337;1260;72993;-59
2023/01/21 08:56:01;;;;;;;26.00;15.90;;;;;;;3.26;100.00;99859.02;104154;1261;70037;-60
2023/01/21 08:58:29;;;;;;;23.70;15.10;;;;;;;3.29;100.00;99847.41;104774;1257;72469;-59
2023/01/21 09:01:00;;;;;;;29.00;17.20;;;;;;;3.31;100.00;99836.80;104311;1260;59726;-61
2023/01/21 09:03:28;;;;;;;26.70;16.00;;;;;;;3.32;100.00;99839.56;104506;1254;61041;-62
2023/01/21 09:06:02;;;;;;;27.50;15.20;;;;;;;3.29;100.00;99840.13;104137;1271;73424;-61
2023/01/21 09:08:30;;;;;;;25.00;15.00;;;;;;;3.27;100.00;99852.09;104263;1259;69311;-61
2023/01/21 09:11:02;;;;;;;24.90;16.10;;;;;;;3.30;100.00;99849.80;104291;1261;72522;-61
2023/01/21 09:13:36;;;;;;;22.90;16.60;;;;;;;3.36;100.00;99849.41;104448;1254;59682;-62
2023/01/21 09:16:15;;;;;;;25.20;15.30;;;;;;;3.37;100.00;99841.27;104279;1252;62158;-61
2023/01/21 09:18:42;;;;;;;23.00;14.50;;;;;;;3.40;100.00;99831.69;104578;1254;74562;-61
2023/01/21 09:21:10;;;;;;;25.60;16.00;;;;;;;3.41;100.00;99833.41;104510;1254;72291;-61
2023/01/21 09:23:38;;;;;;;;;;;;;;;3.48;100.00;99837.15;104176;1260;73086;-61
2023/01/21 09:26:16;;;;;;;28.70;15.50;;;;;;;3.51;100.00;99838.66;104378;1253;59791;-61
2023/01/21 09:28:44;;;;;;;22.10;14.20;;;;;;;3.58;100.00;99832.19;104485;1263;60159;-64
2023/01/21 09:31:14;;;;;;;25.00;14.70;;;;;;;3.62;100.00;99822.09;104501;1261;75851;-61
2023/01/21 09:33:44;;;;;;;25.60;15.20;;;;;;;3.65;100.00;99831.76;104221;1254;70285;-66
2023/01/21 10:07:05;;;;;;;23.20;13.40;;;;;;;1.58;100.00;99844.50;102295;1287;601638;-59
2023/01/21 10:09:35;;;;;;;25.60;16.50;;;;;;;2.20;100.00;99868.98;103466;1272;62180;-59
2023/01/21 10:12:05;;;;;;;26.70;17.00;;;;;;;2.47;100.00;99869.35;103361;1271;60670;-61
2023/01/21 10:15:00;;;;;;;30.40;17.20;;;;;;;2.69;100.00;99858.30;103500;1270;72640;-60
2023/01/21 10:17:39;;;;;;;33.60;18.60;;;;;;;2.87;100.00;99840.84;104411;1258;69841;-59
2023/01/21 10:20:18;;;;;;;25.40;15.40;;;;;;;2.98;100.00;99840.58;104169;1262;163928;-59
2023/01/21 10:22:50;;;;;;;29.20;16.40;;;;;;;3.04;100.00;99851.09;105014;1256;60986;-60
2023/01/21 10:25:20;;;;;;;29.60;17.20;;;;;;;3.16;100.00;99852.55;104393;1265;60480;-61
2023/01/21 10:27:47;;;;;;;27.10;15.10;;;;;;;3.27;100.00;99842.22;104456;1274;72091;-59
2023/01/21 10:30:17;;;;;;;25.40;14.60;;;;;;;3.36;100.00;99850.10;104545;1259;69800;-59
2023/01/21 10:32:45;;;;;;;27.90;15.30;;;;;;;3.38;100.00;99852.52;104531;1272;73286;-60
2023/01/21 10:35:17;;;;;;;26.70;14.80;;;;;;;3.39;100.00;99849.20;104233;1261;60942;-64
2023/01/21 10:37:47;;;;;;;30.30;16.10;;;;;;;3.44;100.00;99844.83;104305;1261;61117;-60
2023/01/21 10:40:41;;;;;;;22.80;14.70;;;;;;;3.48;100.00;99832.48;104393;1263;73668;-63
2023/01/21 10:43:15;;;;;;;24.50;14.10;;;;;;;3.48;100.00;99827.78;104261;1272;70074;-60
2023/01/21 10:45:45;;;;;;;26.60;15.50;;;;;;;3.49;100.00;99825.02;104229;1260;72867;-60
2023/01/21 10:48:44;;;;;;;32.20;15.60;;;;;;;3.54;100.00;99836.39;104179;1260;60680;-60
2023/01/21 10:51:31;;;;;;;28.50;16.50;;;;;;;3.59;100.00;99833.04;104266;1262;60351;-58
2023/01/21 10:54:05;;;;;;;23.30;13.90;;;;;;;3.59;100.00;99822.30;104376;1256;74333;-59
2023/01/21 10:56:47;;;;;;;26.60;15.40;;;;;;;3.55;100.00;99820.27;104320;1259;70833;-59
2023/01/21 10:59:16;;;;;;;28.40;15.10;;;;;;;3.59;100.00;99843.61;104244;1257;74370;-60
2023/01/21 11:01:52;;;;;;;27.60;16.40;;;;;;;3.66;100.00;99847.36;104479;1259;59808;-60
2023/01/21 11:04:21;;;;;;;24.00;15.80;;;;;;;3.65;100.00;99847.55;104775;1259;59744;-60
2023/01/21 11:06:59;;;;;;;28.10;16.10;;;;;;;3.63;100.00;99847.21;104394;1268;73592;-60
2023/01/21 11:09:28;;;;;;;26.00;15.70;;;;;;;3.58;100.00;99854.89;104355;1275;69574;-61
2023/01/21 11:11:56;;;;;;;31.50;17.50;;;;;;;3.62;100.00;99855.55;104324;1256;75245;-59
2023/01/21 11:14:24;;;;;;;27.70;15.80;;;;;;;3.68;100.00;99850.10;104364;1257;59743;-60
2023/01/21 11:16:51;;;;;;;29.50;16.10;;;;;;;3.71;100.00;99845.21;104338;1266;60184;-59
2023/01/21 11:19:23;;;;;;;27.80;15.60;;;;;;;3.71;100.00;99849.56;104361;1258;73297;-59
2023/01/21 11:22:04;;;;;;;32.00;16.80;;;;;;;3.65;100.00;99847.70;104434;1260;69300;-59
2023/01/21 11:24:41;;;;;;;29.00;15.80;;;;;;;3.67;100.00;99841.96;104400;1267;75072;-61
2023/01/21 11:27:35;;;;;;;31.20;16.40;;;;;;;3.69;100.00;99841.23;104377;1265;60062;-61
2023/01/21 11:30:06;;;;;;;26.20;15.90;;;;;;;3.68;100.00;99843.86;104515;1253;59749;-60
2023/01/21 11:32:53;;;;;;;30.70;14.80;;;;;;;3.65;100.00;99847.36;104835;1256;74757;-60
2023/01/21 11:35:21;;;;;;;25.90;15.00;;;;;;;3.67;100.00;99851.67;104835;1260;70667;-61
2023/01/21 11:37:48;;;;;;;28.80;15.30;;;;;;;3.69;100.00;99858.77;104669;1259;71560;-61
2023/01/21 11:40:22;;;;;;;30.60;16.40;;;;;;;3.68;100.00;99858.42;104706;1260;60400;-63
2023/01/21 11:42:51;;;;;;;26.50;13.90;;;;;;;3.66;100.00;99861.04;104474;1261;60700;-60
2023/01/21 11:45:30;;;;;;;29.80;14.90;;;;;;;3.62;100.00;99856.92;104710;1253;76211;-60
2023/01/21 11:47:58;;;;;;;28.10;15.40;;;;;;;3.62;100.00;99855.21;104809;1258;72042;-63
2023/01/21 11:50:26;;;;;;;28.00;15.00;;;;;;;3.66;100.00;99858.79;104723;1259;75215;-60
2023/01/21 11:53:05;;;;;;;27.90;15.60;;;;;;;3.65;100.00;99862.61;104528;1254;61980;-60
2023/01/21 11:55:41;;;;;;;27.00;14.70;;;;;;;3.63;100.00;99861.77;104516;1258;61385;-60
2023/01/21 11:58:22;;;;;;;28.40;15.30;;;;;;;3.62;100.00;99864.73;104658;1256;72955;-61
2023/01/21 12:00:51;;;;;;;30.30;14.50;;;;;;;3.66;100.00;99860.17;104887;1254;70623;-62
2023/01/21 12:03:24;;;;;;;29.30;16.30;;;;;;;3.68;100.00;99869.34;104583;1260;72750;-61
2023/01/21 12:05:52;;;;;;;26.40;14.80;;;;;;;3.66;100.00;99868.67;104697;1259;59815;-59
2023/01/21 12:08:24;;;;;;;24.20;14.70;;;;;;;3.65;100.00;99873.89;104416;1255;59971;-60
2023/01/21 12:10:52;;;;;;;30.60;15.20;;;;;;;3.65;100.00;99870.95;104566;1258;72762;-59
2023/01/21 12:13:41;;;;;;;28.00;14.90;;;;;;;3.70;100.00;99869.85;104755;1260;69907;-59
2023/01/21 12:16:16;;;;;;;28.70;15.00;;;;;;;3.68;100.00;99879.23;104405;1259;72200;-58
2023/01/21 12:18:55;;;;;;;24.30;15.10;;;;;;;3.66;100.00;99888.96;104535;1263;61326;-59
2023/01/21 12:21:35;;;;;;;28.80;14.60;;;;;;;3.71;100.00;99899.48;104587;1265;59686;-59
2023/01/21 12:24:09;;;;;;;29.20;15.60;;;;;;;3.76;100.00;99889.02;104499;1269;73139;-59
2023/01/21 12:26:40;;;;;;;26.10;14.50;;;;;;;3.76;100.00;99902.73;104432;1262;70054;-59
2023/01/21 12:29:20;;;;;;;22.90;13.70;;;;;;;3.74;100.00;99914.02;104750;1259;72519;-59
2023/01/21 12:31:50;;;;;;;31.80;14.70;;;;;;;3.74;100.00;99919.05;104553;1264;61584;-58
2023/01/21 12:34:23;;;;;;;26.90;15.10;;;;;;;3.78;100.00;99925.41;104390;1268;60454;-59
2023/01/21 12:36:58;;;;;;;31.10;16.60;;;;;;;3.78;100.00;99936.52;104470;1255;75496;-58
2023/01/21 12:39:28;;;;;;;27.00;15.10;;;;;;;3.79;100.00;99945.16;104530;1259;71297;-58
2023/01/21 12:42:06;;;;;;;23.60;15.20;;;;;;;3.77;100.00;99962.52;104619;1254;73938;-60
2023/01/21 12:44:45;;;;;;;26.20;15.90;;;;;;;3.79;100.00;99963.91;104718;1254;63261;-59
2023/01/21 12:47:50;;;;;;;32.20;16.00;;;;;;;3.81;100.00;99968.39;104640;1253;60968;-59
2023/01/21 12:50:18;;;;;;;27.60;15.00;;;;;;;3.82;100.00;99970.45;104540;1254;73345;-59
2023/01/21 12:53:14;;;;;;;24.10;14.40;;;;;;;3.78;100.00;99970.14;104412;1263;70506;-59
2023/01/21 12:55:53;;;;;;;27.90;13.70;;;;;;;3.71;100.00;99969.87;104421;1258;74494;-59
2023/01/21 12:58:21;;;;;;;26.20;15.40;;;;;;;3.69;100.00;99966.77;104395;1269;60732;-59
2023/01/21 13:00:49;;;;;;;27.30;15.50;;;;;;;3.73;100.00;99963.10;104359;1259;59663;-59
2023/01/21 13:03:16;;;;;;;;;;;;;;;3.71;100.00;99962.06;104526;1254;73901;-59
2023/01/21 13:05:49;;;;;;;23.30;13.10;;;;;;;3.64;100.00;99976.87;104789;1254;69413;-60
2023/01/21 13:08:33;;;;;;;27.50;13.70;;;;;;;3.61;100.00;99988.69;104537;1254;72760;-62
2023/01/21 13:11:20;;;;;;;29.40;13.90;;;;;;;3.64;100.00;99986.58;104550;1258;61371;-58